Time;durP1;ratioP1;P1;durP2;ratioP2;P2;SDS_P1;SDS_P2;PMS_P1;PMS_P2;Temp;Humidity;BMP_temperature;BMP_pressure;BME280_temperature;BME280_humidity;BME280_pressure;Samples;Min_cycle;Max_cycle;Signal;HPM_P1;HPM_P2
2022/05/03 00:00:06;;;;;;;39.33;24.87;;;;;;;8.51;63.59;100236.75;2052728;86;29850;-57
2022/05/03 00:03:24;;;;;;;38.88;24.65;;;;;;;8.45;63.68;100230.29;2052542;86;28047;-57
2022/05/03 00:07:06;;;;;;;36.23;24.37;;;;;;;8.37;63.63;100222.61;2052426;86;29595;-62
2022/05/03 00:10:19;;;;;;;41.75;25.57;;;;;;;8.32;63.63;100221.95;2056608;85;31959;-57
2022/05/03 00:13:26;;;;;;;34.35;24.05;;;;;;;8.27;63.93;100220.81;2051776;86;34206;-56
2022/05/03 00:16:28;;;;;;;37.95;25.15;;;;;;;8.24;63.79;100220.05;2052903;86;29047;-58
2022/05/03 00:19:31;;;;;;;40.48;25.65;;;;;;;8.20;64.23;100216.65;2052955;86;28211;-56
2022/05/03 00:22:33;;;;;;;42.53;26.80;;;;;;;8.17;64.51;100216.32;2052569;86;29933;-57
2022/05/03 00:25:35;;;;;;;38.67;26.20;;;;;;;8.18;64.49;100215.84;2052578;86;32409;-58
2022/05/03 00:28:38;;;;;;;39.40;26.82;;;;;;;8.18;64.52;100215.84;2052519;86;34210;-66
2022/05/03 00:31:41;;;;;;;44.77;26.40;;;;;;;8.21;64.84;100225.05;2052834;86;29066;-60
2022/05/03 00:34:44;;;;;;;40.43;25.20;;;;;;;8.21;64.77;100220.58;2065799;86;27683;-66
2022/05/03 00:37:46;;;;;;;40.38;27.58;;;;;;;8.24;64.84;100224.05;2069538;86;29882;-57
2022/05/03 00:40:53;;;;;;;40.15;26.70;;;;;;;8.25;64.80;100224.45;2069543;86;31880;-58
2022/05/03 00:44:55;;;;;;;38.00;26.80;;;;;;;8.25;64.79;100224.01;2069473;85;34552;-58
2022/05/03 00:47:16;;;;;;;44.38;27.58;;;;;;;8.26;64.88;100224.41;2069591;86;29189;-59
2022/05/03 00:50:34;;;;;;;40.23;26.97;;;;;;;8.28;65.23;100223.00;2069994;86;27756;-61
2022/05/03 00:53:45;;;;;;;47.17;29.52;;;;;;;8.30;65.04;100221.14;2069777;86;28678;-57
2022/05/03 00:57:16;;;;;;;47.00;30.20;;;;;;;8.30;64.86;100219.81;2069106;86;31103;-69
2022/05/03 01:00:20;;;;;;;47.62;30.35;;;;;;;8.28;65.15;100215.84;2069442;86;33830;-57
2022/05/03 01:03:30;;;;;;;43.65;31.07;;;;;;;8.27;65.14;100217.26;2070066;86;32996;-56
2022/05/03 01:07:03;;;;;;;44.93;29.85;;;;;;;8.25;65.15;100217.78;2055203;86;27689;-61
2022/05/03 01:10:32;;;;;;;45.50;30.17;;;;;;;8.23;65.04;100215.64;2063810;86;29772;-58
2022/05/03 01:14:06;;;;;;;44.48;30.60;;;;;;;8.19;64.93;100219.77;2062737;86;31879;-69
2022/05/03 01:17:34;;;;;;;45.17;29.23;;;;;;;8.16;65.04;100215.91;2063917;86;32473;-66
2022/05/03 01:21:02;;;;;;;48.30;29.95;;;;;;;8.13;65.09;100208.48;2063760;86;30243;-62
2022/05/03 01:24:26;;;;;;;45.30;29.23;;;;;;;8.09;65.22;100216.23;2029931;87;27805;-71
2022/05/03 01:28:00;;;;;;;45.20;30.48;;;;;;;8.04;65.23;100215.94;2029940;87;28721;-71
2022/05/03 01:31:06;;;;;;;44.55;28.80;;;;;;;8.01;65.17;100221.88;2030291;87;31191;-73
2022/05/03 01:34:07;;;;;;;;;;;;;;;7.95;65.22;100222.97;2012196;87;32987;-73
2022/05/03 01:37:33;;;;;;;49.48;32.28;;;;;;;7.93;65.60;100222.63;2033176;87;29061;-74
2022/05/03 01:40:53;;;;;;;;;;;;;;;7.88;65.68;100219.67;2035241;87;27855;-72
2022/05/03 01:44:35;;;;;;;46.15;29.10;;;;;;;7.84;65.74;100224.75;2032825;87;29190;-70
2022/05/03 01:48:14;;;;;;;48.85;31.52;;;;;;;7.79;65.47;100228.05;2032764;87;31606;-70
2022/05/03 01:51:32;;;;;;;42.83;31.00;;;;;;;7.74;65.60;100223.36;2032364;87;34215;-71
2022/05/03 01:55:03;;;;;;;44.13;28.15;;;;;;;7.69;65.53;100218.69;2031894;87;30262;-71
2022/05/03 01:58:16;;;;;;;47.03;29.70;;;;;;;7.64;65.61;100224.66;2032773;87;28298;-71
2022/05/03 02:01:41;;;;;;;46.10;28.75;;;;;;;7.59;65.57;100220.84;2060457;86;29582;-71
2022/05/03 02:04:52;;;;;;;45.98;30.00;;;;;;;7.54;65.61;100224.99;2069286;86;32879;-72
2022/05/03 02:07:57;;;;;;;47.03;31.20;;;;;;;7.48;65.61;100223.91;2069121;86;33827;-71
2022/05/03 02:11:19;;;;;;;47.10;30.00;;;;;;;7.42;65.68;100221.02;2069241;86;30238;-71
2022/05/03 02:14:46;;;;;;;45.58;28.40;;;;;;;7.38;65.79;100224.72;2068961;86;27735;-70
2022/05/03 02:18:06;;;;;;;41.98;27.32;;;;;;;7.32;65.90;100226.75;2069574;86;29152;-71
2022/05/03 02:21:24;;;;;;;42.95;28.75;;;;;;;7.24;66.06;100219.05;2069392;86;31867;-71
2022/05/03 02:24:46;;;;;;;56.90;34.78;;;;;;;7.17;66.12;100226.40;2069492;86;32999;-71
2022/05/03 02:28:26;;;;;;;58.30;42.62;;;;;;;7.09;66.40;100221.35;2069455;86;28981;-71
2022/05/03 02:31:51;;;;;;;61.92;41.53;;;;;;;7.05;66.39;100218.83;2069658;86;28308;-72
2022/05/03 02:35:06;;;;;;;54.63;40.25;;;;;;;7.00;66.45;100212.34;2048479;86;28714;-71
2022/05/03 02:38:09;;;;;;;60.98;41.90;;;;;;;6.98;66.85;100217.74;2097949;84;31098;-70
2022/05/03 02:41:12;;;;;;;50.67;35.85;;;;;;;6.99;66.89;100218.59;2094029;84;33852;-71
2022/05/03 02:44:14;;;;;;;50.98;35.75;;;;;;;7.01;66.96;100217.23;2078784;85;30280;-72
2022/05/03 02:47:35;;;;;;;46.13;31.93;;;;;;;7.04;67.08;100221.09;2078858;85;27705;-69
2022/05/03 02:50:53;;;;;;;49.93;31.95;;;;;;;7.06;67.27;100222.79;2092826;84;29169;-72
2022/05/03 02:54:02;;;;;;;47.85;31.70;;;;;;;7.06;67.52;100214.80;2094081;84;30441;-71
2022/05/03 02:57:25;;;;;;;42.60;29.85;;;;;;;7.08;67.68;100211.62;2094190;85;34029;-66
2022/05/03 03:04:05;;;;;;;47.65;29.67;;;;;;;7.12;67.75;100208.38;2094067;84;27651;-71
2022/05/03 03:07:07;;;;;;;43.58;30.45;;;;;;;7.12;67.72;100211.03;2094050;84;28700;-67
2022/05/03 03:10:12;;;;;;;47.05;29.57;;;;;;;7.10;67.75;100215.10;2093809;84;32952;-69
2022/05/03 03:13:28;;;;;;;45.00;29.70;;;;;;;7.06;67.62;100214.80;2094175;84;32876;-72
2022/05/03 03:16:37;;;;;;;43.98;28.80;;;;;;;7.03;67.41;100215.38;2094259;84;29825;-71
2022/05/03 03:20:13;;;;;;;50.33;29.55;;;;;;;6.98;67.54;100220.41;2095450;84;27726;-71
2022/05/03 03:23:15;;;;;;;;;;;;;;;6.94;67.44;100225.42;2096616;85;29069;-68
2022/05/03 03:26:18;;;;;;;43.38;29.05;;;;;;;6.87;67.80;100228.36;2094046;85;32328;-69
2022/05/03 03:29:21;;;;;;;46.33;30.52;;;;;;;6.80;67.61;100219.73;2094102;85;32786;-67
2022/05/03 03:32:26;;;;;;;47.30;30.30;;;;;;;6.77;67.62;100228.70;2094028;85;29038;-66
2022/05/03 03:35:31;;;;;;;43.70;29.85;;;;;;;6.76;67.72;100228.73;2100642;84;27641;-69
2022/05/03 03:38:43;;;;;;;46.70;31.60;;;;;;;6.76;67.84;100231.40;2102609;84;29916;-71
2022/05/03 03:41:47;;;;;;;44.18;30.50;;;;;;;6.74;68.00;100234.13;2102089;84;31924;-69
2022/05/03 03:44:49;;;;;;;49.67;31.90;;;;;;;6.74;67.99;100230.58;2102779;84;33140;-70
2022/05/03 03:47:52;;;;;;;44.88;31.33;;;;;;;6.74;68.10;100227.47;2102270;84;29908;-71
2022/05/03 03:50:55;;;;;;;49.95;32.13;;;;;;;6.77;68.35;100230.48;2102621;84;27695;-70
2022/05/03 03:53:58;;;;;;;45.48;30.35;;;;;;;6.80;68.27;100231.70;2102549;84;29868;-70
2022/05/03 03:57:00;;;;;;;43.10;31.30;;;;;;;6.84;68.38;100230.20;2102632;84;31082;-71
2022/05/03 04:00:08;;;;;;;50.25;30.60;;;;;;;6.90;68.30;100233.59;2102781;84;33615;-71
2022/05/03 04:03:11;;;;;;;51.37;32.75;;;;;;;6.96;68.26;100241.34;2102878;84;29036;-71
2022/05/03 04:06:13;;;;;;;45.80;30.55;;;;;;;7.04;68.50;100235.29;2102609;84;28232;-72
2022/05/03 04:09:15;;;;;;;43.35;31.57;;;;;;;7.10;68.43;100232.42;2102353;84;29519;-63
2022/05/03 04:12:21;;;;;;;45.23;31.70;;;;;;;7.19;68.47;100236.98;2102153;84;32438;-64
2022/05/03 04:15:23;;;;;;;52.17;32.70;;;;;;;7.30;68.53;100236.11;2102499;84;32980;-67
2022/05/03 04:18:44;;;;;;;42.10;32.10;;;;;;;7.41;68.53;100235.72;2102224;84;30228;-60
2022/05/03 04:21:29;;;;;;;45.23;32.45;;;;;;;7.53;68.54;100234.39;2097500;84;27645;-62
2022/05/03 04:24:31;;;;;;;46.00;31.90;;;;;;;7.64;68.43;100242.84;2102244;84;29925;-66
2022/05/03 04:27:33;;;;;;;46.60;32.10;;;;;;;7.75;68.41;100239.77;2102157;84;32260;-68
2022/05/03 04:30:35;;;;;;;41.45;29.98;;;;;;;7.89;68.39;100243.23;2102173;84;33806;-69
2022/05/03 04:33:37;;;;;;;44.65;31.20;;;;;;;8.02;68.43;100243.63;2101079;84;30156;-72
2022/05/03 04:36:39;;;;;;;47.62;31.57;;;;;;;8.15;68.41;100242.20;2105510;84;27726;-71
2022/05/03 04:39:42;;;;;;;45.85;29.48;;;;;;;8.31;68.31;100244.23;2102631;84;29084;-66
2022/05/03 04:42:43;;;;;;;37.38;27.10;;;;;;;8.48;68.20;100242.22;2102487;84;32295;-70
2022/05/03 04:45:45;;;;;;;33.98;25.35;;;;;;;8.65;68.05;100247.72;2102209;84;34338;-70
2022/05/03 04:48:47;;;;;;;34.13;24.77;;;;;;;8.85;68.02;100245.99;2102497;84;30115;-71
2022/05/03 04:51:49;;;;;;;37.28;23.83;;;;;;;9.12;68.00;100257.28;2102521;84;27713;-72
2022/05/03 04:54:51;;;;;;;35.65;24.35;;;;;;;9.67;68.35;100254.37;2102250;84;28330;-67
2022/05/03 04:57:54;;;;;;;33.60;23.10;;;;;;;10.54;68.35;100248.88;2102482;84;31191;-70
2022/05/03 05:00:56;;;;;;;30.12;23.15;;;;;;;11.47;67.58;100244.08;2102457;84;33094;-73
2022/05/03 05:03:58;;;;;;;33.33;23.55;;;;;;;12.37;66.67;100236.89;2102522;84;29563;-73
2022/05/03 05:06:59;;;;;;;28.07;19.92;;;;;;;13.19;65.69;100233.33;2102272;84;27699;-72
2022/05/03 05:13:22;;;;;;;27.90;18.60;;;;;;;14.49;63.00;100239.87;2102406;84;31200;-65
2022/05/03 05:16:25;;;;;;;25.02;18.00;;;;;;;14.83;61.42;100247.55;2102430;84;33367;-62
2022/05/03 05:19:27;;;;;;;23.57;16.93;;;;;;;15.01;60.75;100251.68;2102390;84;29013;-71
2022/05/03 05:22:30;;;;;;;21.25;16.27;;;;;;;14.98;60.12;100249.19;2102285;84;27710;-61
2022/05/03 05:25:33;;;;;;;21.70;14.98;;;;;;;15.00;59.33;100243.67;2102094;84;29607;-64
2022/05/03 05:28:35;;;;;;;21.80;15.05;;;;;;;15.00;58.77;100251.77;2102015;84;31939;-72
2022/05/03 05:31:37;;;;;;;20.82;14.25;;;;;;;14.99;58.34;100243.30;2102064;84;33239;-60
2022/05/03 05:34:42;;;;;;;23.50;14.45;;;;;;;15.37;58.58;100239.75;2102079;84;29140;-66
2022/05/03 05:37:46;;;;;;;21.70;15.08;;;;;;;15.74;57.71;100251.10;2102445;84;27685;-63
2022/05/03 05:40:52;;;;;;;18.33;13.37;;;;;;;15.82;56.88;100254.13;2102872;84;29323;-61
2022/05/03 05:43:54;;;;;;;20.08;14.15;;;;;;;15.80;56.08;100251.52;2103186;84;30674;-68
2022/05/03 05:46:57;;;;;;;18.45;13.78;;;;;;;15.90;55.52;100249.55;2102334;84;34172;-74
2022/05/03 05:50:00;;;;;;;19.73;14.15;;;;;;;15.88;55.05;100254.19;2102359;84;31106;-71
2022/05/03 05:56:24;;;;;;;19.10;14.05;;;;;;;16.16;53.73;100257.56;2102461;84;28693;-59
2022/05/03 05:59:27;;;;;;;15.45;12.23;;;;;;;16.53;53.81;100251.64;2102669;84;31147;-73
2022/05/03 06:02:29;;;;;;;18.32;11.45;;;;;;;17.15;53.23;100250.13;2102604;84;32973;-63
2022/05/03 06:05:31;;;;;;;14.58;12.10;;;;;;;17.81;52.88;100252.64;2102605;84;29400;-75
2022/05/03 06:08:33;;;;;;;18.57;11.78;;;;;;;18.42;51.79;100247.23;2102691;84;27682;-61
2022/05/03 06:11:37;;;;;;;14.43;11.15;;;;;;;18.71;50.89;100251.57;2102611;84;29071;-70
2022/05/03 06:14:40;;;;;;;15.13;11.10;;;;;;;18.79;49.79;100252.28;2102701;84;31919;-70
2022/05/03 06:17:44;;;;;;;17.60;11.00;;;;;;;18.70;49.19;100249.00;2102875;84;33846;-73
2022/05/03 06:20:48;;;;;;;15.78;10.60;;;;;;;19.26;48.96;100248.70;2102653;84;29077;-66
2022/05/03 06:23:51;;;;;;;16.00;10.93;;;;;;;19.86;48.05;100252.55;2102674;84;27722;-70
2022/05/03 06:26:54;;;;;;;14.68;9.90;;;;;;;19.99;47.32;100252.34;2102342;84;29978;-73
2022/05/03 06:29:59;;;;;;;16.48;9.75;;;;;;;20.59;46.70;100244.63;2102606;84;31808;-70
2022/05/03 06:33:02;;;;;;;14.45;9.98;;;;;;;21.24;45.66;100241.28;2102623;84;34145;-72
2022/05/03 06:36:04;;;;;;;14.87;9.00;;;;;;;21.92;45.30;100242.92;2074741;83;29883;-67
2022/05/03 06:39:06;;;;;;;12.33;9.15;;;;;;;22.54;44.92;100246.35;2068531;86;27680;-74
2022/05/03 06:42:10;;;;;;;13.93;8.58;;;;;;;22.89;42.73;100243.25;2068584;86;29628;-69
2022/05/03 06:45:12;;;;;;;10.57;8.33;;;;;;;22.77;42.12;100248.62;2069092;86;31067;-67
2022/05/03 06:48:15;;;;;;;12.68;8.80;;;;;;;22.96;41.75;100240.73;2068412;86;35068;-72
2022/05/03 06:51:17;;;;;;;13.58;9.58;;;;;;;23.35;40.84;100246.34;2068774;86;30159;-68
2022/05/03 06:54:19;;;;;;;12.47;9.05;;;;;;;23.66;40.29;100243.96;2069023;86;27644;-73
2022/05/03 06:57:22;;;;;;;10.85;8.30;;;;;;;24.02;39.64;100256.63;2068532;86;29863;-75
2022/05/03 07:00:26;;;;;;;12.20;8.70;;;;;;;24.36;39.16;100248.85;2068994;86;31096;-62
2022/05/03 07:03:28;;;;;;;10.80;8.53;;;;;;;24.71;38.34;100250.15;2068929;86;33654;-74
2022/05/03 07:06:34;;;;;;;10.80;8.15;;;;;;;25.12;37.77;100247.38;2068448;86;29446;-65
2022/05/03 07:09:37;;;;;;;11.93;7.83;;;;;;;25.46;36.54;100250.45;2068520;86;27724;-72
2022/05/03 07:12:39;;;;;;;14.33;7.80;;;;;;;25.71;35.99;100255.00;2068720;86;28663;-74
2022/05/03 07:15:43;;;;;;;11.03;7.25;;;;;;;26.02;36.06;100251.44;2068505;86;31062;-72
2022/05/03 07:25:17;;;;;;;8.58;6.35;;;;;;;26.80;32.98;100258.41;2002517;88;27700;-77
2022/05/03 07:28:19;;;;;;;8.08;5.97;;;;;;;26.80;32.47;100255.66;2002833;88;29587;-73
2022/05/03 07:31:21;;;;;;;7.87;6.58;;;;;;;26.89;32.68;100253.70;2002542;88;32219;-74
2022/05/03 07:34:23;;;;;;;11.63;6.62;;;;;;;27.03;32.24;100260.30;2002240;88;33847;-73
2022/05/03 07:37:25;;;;;;;8.70;6.75;;;;;;;27.26;32.44;100258.88;2011564;88;29489;-72
2022/05/03 07:40:42;;;;;;;9.85;6.65;;;;;;;27.54;32.23;100258.27;2012151;88;27675;-69
2022/05/03 07:43:57;;;;;;;8.98;5.97;;;;;;;28.00;31.98;100260.80;1987928;88;27746;-64
2022/05/03 07:47:12;;;;;;;10.20;5.83;;;;;;;28.40;31.78;100258.23;2011545;88;31124;-61
2022/05/03 07:50:19;;;;;;;7.03;5.70;;;;;;;28.72;30.78;100254.65;2011702;88;33069;-65
2022/05/03 07:53:30;;;;;;;8.38;5.95;;;;;;;28.98;30.55;100262.86;2011615;88;29272;-67
2022/05/03 07:56:38;;;;;;;6.83;5.70;;;;;;;29.18;30.02;100261.67;2011719;88;27692;-63
2022/05/03 07:59:59;;;;;;;6.90;4.90;;;;;;;29.33;29.51;100266.56;2011671;88;28670;-63
2022/05/03 08:03:03;;;;;;;7.42;5.30;;;;;;;29.39;28.34;100265.77;2065956;85;31034;-68
2022/05/03 08:06:05;;;;;;;6.30;4.83;;;;;;;29.10;28.01;100266.81;2081574;85;32964;-62
2022/05/03 08:09:07;;;;;;;11.20;4.67;;;;;;;28.83;28.30;100264.34;2081407;85;31122;-71
2022/05/03 08:12:12;;;;;;;7.22;5.10;;;;;;;28.52;26.76;100270.99;2081586;85;27764;-73
2022/05/03 08:15:14;;;;;;;5.47;4.37;;;;;;;28.08;27.35;100270.86;2081685;85;28525;-73
2022/05/03 08:18:15;;;;;;;6.12;4.47;;;;;;;27.87;26.73;100273.89;2081503;85;31142;-73
2022/05/03 08:21:18;;;;;;;8.33;4.50;;;;;;;27.59;26.76;100267.66;2081556;85;34199;-73
2022/05/03 08:24:20;;;;;;;5.90;3.98;;;;;;;27.53;26.98;100275.31;2081879;85;29440;-72
2022/05/03 08:27:23;;;;;;;5.87;4.10;;;;;;;27.61;27.35;100277.12;2081997;85;27738;-72
2022/05/03 08:30:24;;;;;;;9.15;4.50;;;;;;;27.67;27.14;100278.25;2082003;85;29352;-72
2022/05/03 08:33:28;;;;;;;4.53;3.87;;;;;;;27.54;27.27;100278.40;2081592;85;32396;-72
2022/05/03 08:36:30;;;;;;;5.53;4.12;;;;;;;27.62;27.17;100280.20;2093942;84;33841;-71
2022/05/03 08:42:54;;;;;;;8.13;4.83;;;;;;;27.87;26.25;100279.91;2066711;86;27690;-66
2022/05/03 08:45:57;;;;;;;6.75;3.87;;;;;;;27.87;26.66;100282.16;2066834;86;29487;-71
2022/05/03 08:49:04;;;;;;;8.30;4.80;;;;;;;27.86;26.73;100277.69;2067031;86;31914;-66
2022/05/03 08:52:08;;;;;;;5.35;4.40;;;;;;;27.81;26.47;100277.90;2066957;86;33029;-71
2022/05/03 08:55:12;;;;;;;5.12;4.62;;;;;;;27.54;26.57;100274.27;2066945;86;29255;-72
2022/05/03 08:58:17;;;;;;;5.17;4.42;;;;;;;27.37;26.79;100277.66;2066944;86;27687;-71
2022/05/03 09:01:20;;;;;;;7.05;4.78;;;;;;;27.27;26.99;100264.17;2067040;86;29706;-66
2022/05/03 09:04:22;;;;;;;5.67;4.35;;;;;;;27.22;26.80;100272.13;2066457;86;31471;-65
2022/05/03 09:07:26;;;;;;;6.08;4.15;;;;;;;27.00;26.34;100273.88;2066762;86;33774;-67
2022/05/03 09:10:34;;;;;;;7.10;4.35;;;;;;;26.82;26.81;100262.67;2066936;86;29875;-65
2022/05/03 09:13:37;;;;;;;5.08;4.00;;;;;;;26.64;26.53;100261.59;2066897;86;27705;-62
2022/05/03 09:16:52;;;;;;;5.17;4.60;;;;;;;26.55;26.97;100265.45;2066551;86;29937;-63
2022/05/03 09:19:54;;;;;;;7.75;4.40;;;;;;;26.54;27.12;100259.61;2066809;86;31719;-65
2022/05/03 09:26:26;;;;;;;5.83;4.75;;;;;;;26.59;27.01;100258.52;2066676;86;30440;-63
2022/05/03 09:29:29;;;;;;;4.67;4.20;;;;;;;26.57;27.26;100252.88;2066591;86;27709;-62
2022/05/03 09:32:47;;;;;;;6.03;4.37;;;;;;;26.49;27.48;100251.89;2066498;86;29942;-62
2022/05/03 09:35:50;;;;;;;5.33;4.25;;;;;;;26.36;27.61;100261.25;2075592;84;31390;-61
2022/05/03 09:38:56;;;;;;;8.03;5.30;;;;;;;26.05;27.29;100260.20;2102949;84;33002;-66
2022/05/03 09:42:20;;;;;;;7.45;5.28;;;;;;;25.84;27.45;100258.03;2102758;84;29870;-67
2022/05/03 09:45:25;;;;;;;5.25;4.75;;;;;;;25.59;27.51;100258.14;2102836;84;27649;-69
2022/05/03 09:48:31;;;;;;;7.53;4.20;;;;;;;25.32;28.29;100256.62;2102464;84;28664;-64
2022/05/03 09:51:35;;;;;;;6.72;4.80;;;;;;;25.21;28.44;100255.62;2099150;84;32247;-65
2022/05/03 09:54:48;;;;;;;6.03;4.27;;;;;;;25.10;28.31;100249.44;2103185;84;32988;-73
2022/05/03 09:57:51;;;;;;;6.10;4.55;;;;;;;25.06;28.77;100252.20;2102873;84;29826;-72
2022/05/03 10:00:53;;;;;;;8.98;5.67;;;;;;;25.03;29.00;100247.91;2102649;84;27712;-72
2022/05/03 10:03:55;;;;;;;7.25;5.70;;;;;;;25.06;29.14;100253.58;2102672;84;30315;-72
2022/05/03 10:06:59;;;;;;;8.88;5.28;;;;;;;25.01;28.60;100240.89;2102754;84;31026;-72
2022/05/03 10:10:03;;;;;;;5.92;5.30;;;;;;;24.89;29.09;100243.12;2102643;84;32973;-72
2022/05/03 10:13:06;;;;;;;5.58;4.40;;;;;;;24.81;29.38;100239.87;2102689;84;29109;-71
2022/05/03 10:22:54;;;;;;;6.72;5.33;;;;;;;24.57;29.36;100234.67;2102649;84;31785;-70
2022/05/03 10:26:11;;;;;;;6.10;4.92;;;;;;;24.53;29.40;100236.55;2102710;84;32989;-72
2022/05/03 10:29:24;;;;;;;6.90;4.70;;;;;;;24.51;29.44;100229.89;2102775;84;28545;-71
2022/05/03 10:32:31;;;;;;;6.55;5.70;;;;;;;24.54;29.15;100226.81;2101983;84;27732;-69
2022/05/03 10:35:36;;;;;;;5.92;5.25;;;;;;;24.57;29.29;100226.98;2102904;84;28666;-71
2022/05/03 10:38:46;;;;;;;9.40;5.22;;;;;;;24.57;29.35;100231.09;2102931;84;31033;-72
2022/05/03 10:42:02;;;;;;;8.75;5.45;;;;;;;24.56;29.33;100224.77;2102447;84;34233;-66
2022/05/03 10:45:11;;;;;;;9.98;5.78;;;;;;;24.54;29.09;100224.08;2102816;84;29141;-66
2022/05/03 10:48:29;;;;;;;6.80;5.70;;;;;;;24.40;28.89;100220.11;2103012;84;27661;-69
2022/05/03 10:51:32;;;;;;;8.85;5.72;;;;;;;24.34;28.87;100208.98;2102230;84;30060;-67
2022/05/03 10:54:59;;;;;;;7.70;5.00;;;;;;;24.41;28.91;100211.38;2102764;84;31847;-69
2022/05/03 10:58:26;;;;;;;8.10;4.58;;;;;;;24.35;29.02;100208.80;2095342;84;33582;-65
2022/05/03 11:01:29;;;;;;;8.65;4.80;;;;;;;24.39;29.33;100210.71;2102596;84;29927;-66
2022/05/03 11:04:35;;;;;;;8.70;5.17;;;;;;;24.40;29.40;100208.32;2102997;84;27663;-67
2022/05/03 11:07:36;;;;;;;5.67;5.15;;;;;;;24.33;29.07;100209.48;2102770;84;28800;-60
2022/05/03 11:10:44;;;;;;;6.83;4.47;;;;;;;24.11;28.94;100210.48;2102479;84;32277;-58
2022/05/03 11:13:46;;;;;;;8.45;5.22;;;;;;;23.87;29.23;100214.46;2102809;84;33039;-58
2022/05/03 11:16:51;;;;;;;6.80;4.53;;;;;;;23.64;29.24;100212.34;2102458;84;30226;-60
2022/05/03 11:19:59;;;;;;;5.85;4.65;;;;;;;23.50;29.46;100213.27;2103205;84;27698;-58
2022/05/03 11:23:00;;;;;;;5.45;4.95;;;;;;;23.45;29.66;100208.82;2102971;84;28675;-58
2022/05/03 11:26:03;;;;;;;8.78;5.00;;;;;;;23.28;29.61;100213.33;2102382;84;32268;-59
2022/05/03 11:29:11;;;;;;;6.67;4.40;;;;;;;23.14;29.50;100215.25;2102856;84;33765;-59
2022/05/03 11:32:15;;;;;;;6.08;5.03;;;;;;;23.12;30.14;100211.81;2102193;84;30438;-58
2022/05/03 11:35:22;;;;;;;5.50;4.75;;;;;;;22.97;29.71;100209.67;2103054;84;27782;-60
2022/05/03 11:38:27;;;;;;;7.10;4.83;;;;;;;22.85;29.69;100205.49;2102495;84;28640;-70
2022/05/03 11:41:29;;;;;;;8.58;6.42;;;;;;;22.82;29.97;100210.77;2087548;85;31430;-58
2022/05/03 11:44:32;;;;;;;8.13;5.08;;;;;;;22.88;30.00;100203.29;2102990;84;33796;-60
2022/05/03 11:47:42;;;;;;;8.48;5.37;;;;;;;22.79;29.91;100201.52;2102457;84;30250;-58
2022/05/03 11:57:47;;;;;;;5.67;5.08;;;;;;;22.93;29.94;100199.23;2098265;84;32308;-61
2022/05/03 12:00:49;;;;;;;7.60;5.20;;;;;;;22.87;30.25;100193.91;2102358;84;34307;-59
2022/05/03 12:03:56;;;;;;;6.97;5.20;;;;;;;22.92;30.38;100188.80;2102757;84;29018;-59
2022/05/03 12:06:58;;;;;;;8.30;5.95;;;;;;;22.98;30.19;100202.35;2102967;84;27687;-59
2022/05/03 12:10:00;;;;;;;9.00;5.08;;;;;;;23.02;30.37;100196.89;2102888;84;29122;-59
2022/05/03 12:13:17;;;;;;;11.25;5.00;;;;;;;23.01;30.33;100192.44;2102298;84;32219;-59
2022/05/03 12:16:27;;;;;;;5.62;4.65;;;;;;;23.02;30.60;100194.16;2091160;84;33788;-59
2022/05/03 12:19:37;;;;;;;5.85;4.55;;;;;;;23.08;30.69;100188.06;2104431;84;29198;-59
2022/05/03 12:22:39;;;;;;;5.00;4.28;;;;;;;23.19;30.67;100193.77;2102989;84;27703;-60
2022/05/03 12:25:43;;;;;;;7.10;5.17;;;;;;;23.34;30.91;100184.48;2102730;84;28710;-61
2022/05/03 12:28:48;;;;;;;9.15;5.08;;;;;;;23.41;30.41;100184.71;2102823;84;32006;-59
2022/05/03 12:31:50;;;;;;;7.85;5.45;;;;;;;23.47;30.40;100184.04;2102583;84;32977;-60
2022/05/03 12:34:57;;;;;;;7.72;5.17;;;;;;;23.46;30.41;100179.59;2069001;84;29149;-60
2022/05/03 12:38:14;;;;;;;6.08;4.55;;;;;;;23.46;30.21;100179.59;2104180;84;27732;-59
2022/05/03 12:41:30;;;;;;;11.03;7.22;;;;;;;23.32;30.22;100179.19;2049469;86;29991;-61
2022/05/03 12:44:57;;;;;;;8.70;5.65;;;;;;;23.10;30.33;100171.00;2104901;84;32276;-60
2022/05/03 12:47:59;;;;;;;7.28;5.10;;;;;;;22.90;30.38;100169.00;2104811;84;35161;-60
2022/05/03 12:51:02;;;;;;;11.25;8.98;;;;;;;22.76;30.70;100168.54;2105067;84;29931;-60
2022/05/03 12:54:05;;;;;;;17.92;9.68;;;;;;;22.74;30.88;100162.41;2105338;84;27979;-59
2022/05/03 13:00:33;;;;;;;6.90;4.47;;;;;;;22.67;30.66;100163.20;2105336;84;32427;-60
2022/05/03 13:03:35;;;;;;;4.97;3.87;;;;;;;22.78;31.10;100155.23;2105639;84;33468;-59
2022/05/03 13:06:38;;;;;;;5.22;4.12;;;;;;;22.85;30.92;100148.97;2105309;84;29084;-59
2022/05/03 13:09:39;;;;;;;5.80;4.15;;;;;;;22.89;30.64;100147.64;2105217;84;27654;-59
2022/05/03 13:12:42;;;;;;;5.00;4.45;;;;;;;22.95;30.84;100153.48;2079475;84;29423;-60
2022/05/03 13:15:44;;;;;;;5.00;4.00;;;;;;;23.01;30.53;100141.90;2105237;84;32206;-60
2022/05/03 13:18:46;;;;;;;7.33;4.62;;;;;;;23.13;30.70;100135.66;2104945;84;34204;-59
2022/05/03 13:21:48;;;;;;;7.62;4.20;;;;;;;23.24;30.85;100140.02;2105617;84;29724;-62
2022/05/03 13:24:50;;;;;;;4.17;3.72;;;;;;;23.21;30.38;100140.69;2105056;84;27711;-59
2022/05/03 13:27:53;;;;;;;9.00;5.05;;;;;;;23.11;30.53;100133.09;2104957;84;28372;-59
2022/05/03 13:30:56;;;;;;;4.60;4.03;;;;;;;22.97;30.74;100137.27;2104956;84;32470;-60
2022/05/03 13:33:58;;;;;;;4.10;3.70;;;;;;;22.87;30.83;100129.70;2105324;84;32959;-59
2022/05/03 13:40:29;;;;;;;6.22;4.25;;;;;;;22.65;30.64;100132.46;2102453;84;27597;-60
2022/05/03 13:43:31;;;;;;;6.50;3.77;;;;;;;22.54;30.55;100131.68;2102171;84;29871;-59
2022/05/03 13:46:33;;;;;;;8.35;4.17;;;;;;;22.44;30.68;100136.39;2105634;84;32164;-59
2022/05/03 13:49:37;;;;;;;4.53;3.52;;;;;;;22.44;30.61;100136.39;2105212;84;34162;-59
2022/05/03 13:52:41;;;;;;;5.53;4.05;;;;;;;22.44;30.74;100133.66;2102452;84;30187;-59
2022/05/03 13:55:43;;;;;;;5.75;3.90;;;;;;;22.45;30.93;100132.13;2102536;84;27612;-64
2022/05/03 13:58:46;;;;;;;9.25;3.83;;;;;;;22.47;31.20;100131.98;2101955;84;29058;-59
2022/05/03 14:01:49;;;;;;;5.80;3.72;;;;;;;22.44;30.98;100129.04;2102902;84;32029;-59
2022/05/03 14:04:51;;;;;;;6.42;4.50;;;;;;;22.42;31.04;100130.22;2102390;84;33782;-65
2022/05/03 14:07:54;;;;;;;5.10;3.77;;;;;;;22.33;30.84;100125.69;2102209;84;30392;-66
2022/05/03 14:10:56;;;;;;;5.70;4.33;;;;;;;22.28;31.11;100128.37;2105633;84;27603;-66
2022/05/03 14:14:00;;;;;;;5.80;3.77;;;;;;;22.35;31.57;100128.60;2105260;84;29514;-66
2022/05/03 14:17:03;;;;;;;5.05;3.35;;;;;;;22.43;31.42;100117.77;2105462;84;31738;-66
2022/05/03 14:20:07;;;;;;;4.80;3.80;;;;;;;22.49;31.62;100119.03;2105513;84;33878;-67
2022/05/03 14:23:09;;;;;;;5.80;3.80;;;;;;;22.58;31.64;100117.23;2105900;84;29198;-66
2022/05/03 14:26:12;;;;;;;5.45;4.92;;;;;;;22.65;31.85;100121.54;2105615;84;27604;-60
2022/05/03 14:29:14;;;;;;;5.78;4.10;;;;;;;22.65;31.61;100128.36;2102424;84;28719;-61
2022/05/03 14:32:16;;;;;;;7.55;5.03;;;;;;;22.52;31.31;100128.25;2105189;84;32332;-62
2022/05/03 14:35:18;;;;;;;7.42;4.45;;;;;;;22.41;31.42;100131.20;2100170;84;34321;-63
2022/05/03 14:38:20;;;;;;;6.05;4.05;;;;;;;22.36;31.38;100130.32;2084250;85;30230;-61
2022/05/03 14:41:22;;;;;;;8.10;4.92;;;;;;;22.36;31.39;100123.98;2095428;85;27627;-61
2022/05/03 14:44:24;;;;;;;7.20;5.40;;;;;;;22.30;31.37;100121.39;2094909;85;29512;-63
2022/05/03 14:47:27;;;;;;;6.25;4.83;;;;;;;22.15;31.50;100125.19;2094879;85;32270;-62
2022/05/03 14:50:30;;;;;;;7.05;4.45;;;;;;;21.96;31.57;100122.96;2094884;85;34437;-62
2022/05/03 14:53:32;;;;;;;7.47;5.35;;;;;;;21.83;31.85;100123.33;2095340;85;29031;-63
2022/05/03 15:03:16;;;;;;;6.83;4.60;;;;;;;21.49;32.63;100120.36;2077631;84;32393;-62
2022/05/03 15:06:18;;;;;;;7.10;5.40;;;;;;;21.39;32.79;100129.44;2085066;84;33678;-61
2022/05/03 15:09:20;;;;;;;6.62;4.92;;;;;;;21.30;32.90;100123.54;2084879;84;30204;-60
2022/05/03 15:12:22;;;;;;;5.20;4.70;;;;;;;21.21;33.22;100129.88;2083841;85;28060;-61
2022/05/03 15:15:25;;;;;;;8.65;5.42;;;;;;;21.19;33.31;100125.07;2085370;84;29855;-61